createdAt,value
2023-05-14T00:01:38.235Z,6.36
2023-05-14T00:04:07.641Z,6.33
2023-05-14T00:06:36.753Z,6.34
2023-05-14T00:09:06.642Z,6.35
2023-05-14T00:11:35.805Z,6.34
2023-05-14T00:14:05.066Z,6.30
2023-05-14T00:16:34.182Z,6.24
2023-05-14T00:19:03.379Z,6.19
2023-05-14T00:21:32.609Z,6.17
2023-05-14T00:24:01.740Z,6.16
2023-05-14T00:26:30.620Z,6.13
2023-05-14T00:28:59.830Z,6.10
2023-05-14T00:31:28.990Z,6.08
2023-05-14T00:33:58.696Z,6.07
2023-05-14T00:36:27.799Z,6.04
2023-05-14T00:38:56.944Z,5.99
2023-05-14T00:41:26.079Z,5.96
2023-05-14T00:43:55.227Z,5.96
2023-05-14T00:46:24.514Z,5.96
2023-05-14T00:48:54.373Z,5.95
2023-05-14T00:51:23.845Z,5.93
2023-05-14T00:53:54.341Z,5.89
2023-05-14T00:56:24.041Z,5.83
2023-05-14T00:58:53.402Z,5.77
2023-05-14T01:01:22.454Z,5.68
2023-05-14T01:03:53.707Z,5.63
2023-05-14T01:06:34.279Z,5.62
2023-05-14T01:09:19.470Z,5.61
2023-05-14T01:12:12.524Z,5.58
2023-05-14T01:15:12.822Z,5.55
2023-05-14T01:18:14.062Z,5.53
2023-05-14T01:20:44.740Z,5.44
2023-05-14T01:23:13.941Z,5.35
2023-05-14T01:25:43.284Z,5.26
2023-05-14T01:28:21.352Z,5.18
2023-05-14T01:31:07.260Z,5.16
2023-05-14T01:33:37.468Z,5.17
2023-05-14T01:36:07.304Z,5.17
2023-05-14T01:38:38.015Z,5.17
2023-05-14T01:41:07.876Z,5.20
2023-05-14T01:43:38.287Z,5.21
2023-05-14T01:46:07.414Z,5.20
2023-05-14T01:48:37.993Z,5.20
2023-05-14T01:51:07.185Z,5.20
2023-05-14T01:53:36.477Z,5.18
2023-05-14T01:56:05.972Z,5.16
2023-05-14T01:58:35.266Z,5.13
2023-05-14T02:01:04.448Z,5.11
2023-05-14T02:03:33.681Z,5.12
2023-05-14T02:06:02.922Z,5.11
2023-05-14T02:08:32.497Z,5.09
2023-05-14T02:11:01.905Z,5.09
2023-05-14T02:13:31.331Z,5.07
2023-05-14T02:16:00.656Z,5.07
2023-05-14T02:18:30.057Z,5.04
2023-05-14T02:20:59.320Z,5.00
2023-05-14T02:23:40.416Z,4.95
2023-05-14T02:26:11.575Z,4.93
2023-05-14T02:28:40.412Z,4.91
2023-05-14T02:31:09.734Z,4.91
2023-05-14T02:33:39.059Z,4.92
2023-05-14T02:36:08.735Z,4.91
2023-05-14T02:38:38.254Z,4.93
2023-05-14T02:41:07.355Z,4.94
2023-05-14T02:43:36.658Z,4.94
2023-05-14T02:46:05.827Z,4.92
2023-05-14T02:48:35.220Z,4.87
2023-05-14T02:51:04.866Z,4.83
2023-05-14T02:53:34.132Z,4.84
2023-05-14T02:56:03.716Z,4.86
2023-05-14T02:58:33.070Z,4.92
2023-05-14T03:01:02.311Z,4.97
2023-05-14T03:03:32.212Z,5.03
2023-05-14T03:06:02.156Z,5.09
2023-05-14T03:08:31.562Z,5.14
2023-05-14T03:11:00.839Z,5.15
2023-05-14T03:13:30.504Z,5.13
2023-05-14T03:15:59.771Z,5.08
2023-05-14T03:18:31.111Z,5.01
2023-05-14T03:21:01.145Z,4.94
2023-05-14T03:23:32.191Z,4.95
2023-05-14T03:26:02.430Z,5.00
2023-05-14T03:28:31.526Z,5.07
2023-05-14T03:31:02.262Z,5.15
2023-05-14T03:33:32.587Z,5.24
2023-05-14T03:36:01.690Z,5.34
2023-05-14T03:38:30.705Z,5.43
2023-05-14T03:41:00.071Z,5.51
2023-05-14T03:43:29.127Z,5.61
2023-05-14T03:45:58.550Z,5.74
2023-05-14T03:48:27.879Z,5.86
2023-05-14T03:50:57.371Z,5.99
2023-05-14T03:53:26.880Z,6.13
2023-05-14T03:55:57.101Z,6.22
2023-05-14T03:58:26.397Z,6.30
2023-05-14T04:00:55.717Z,6.36
2023-05-14T04:03:24.959Z,6.40
2023-05-14T04:05:55.330Z,6.47
2023-05-14T04:08:24.482Z,6.56
2023-05-14T04:10:53.610Z,6.64
2023-05-14T04:13:25.847Z,6.72
2023-05-14T04:15:55.015Z,6.85
2023-05-14T04:18:24.773Z,6.98
2023-05-14T04:20:54.621Z,7.14
2023-05-14T04:23:23.915Z,7.24
2023-05-14T04:25:53.031Z,7.35
2023-05-14T04:28:22.230Z,7.48
2023-05-14T04:30:51.348Z,7.59
2023-05-14T04:33:21.015Z,7.68
2023-05-14T04:35:50.145Z,7.78
2023-05-14T04:38:20.113Z,7.93
2023-05-14T04:40:49.391Z,8.08
2023-05-14T04:43:18.941Z,8.23
2023-05-14T04:45:48.327Z,8.33
2023-05-14T04:48:17.508Z,8.47
2023-05-14T04:50:46.837Z,8.63
2023-05-14T04:53:16.278Z,8.80
2023-05-14T04:55:45.579Z,8.99
2023-05-14T04:58:14.494Z,9.16
2023-05-14T05:00:43.924Z,9.31
2023-05-14T05:03:13.249Z,9.46
2023-05-14T05:05:42.448Z,9.66
2023-05-14T05:08:11.685Z,9.81
2023-05-14T05:10:40.763Z,9.94
2023-05-14T05:13:09.836Z,10.09
2023-05-14T05:15:38.976Z,10.23
2023-05-14T05:18:08.151Z,10.35
2023-05-14T05:20:37.382Z,10.46
2023-05-14T05:23:06.334Z,10.61
2023-05-14T05:25:35.330Z,10.69
2023-05-14T05:28:04.520Z,10.78
2023-05-14T05:30:33.473Z,10.84
2023-05-14T05:33:02.746Z,10.94
2023-05-14T05:35:31.725Z,10.96
2023-05-14T05:38:01.688Z,11.04
2023-05-14T05:40:30.981Z,11.18
2023-05-14T05:42:59.893Z,11.31
2023-05-14T05:45:29.055Z,11.41
2023-05-14T05:47:58.196Z,11.52
2023-05-14T05:50:27.432Z,11.66
2023-05-14T05:52:56.466Z,11.79
2023-05-14T05:55:26.289Z,11.89
2023-05-14T05:57:55.398Z,11.97
2023-05-14T06:00:24.895Z,12.10
2023-05-14T06:02:54.718Z,12.30
2023-05-14T06:05:24.057Z,12.45
2023-05-14T06:07:56.158Z,12.60
2023-05-14T06:10:25.270Z,12.71
2023-05-14T06:12:54.891Z,12.77
2023-05-14T06:15:23.942Z,12.90
2023-05-14T06:17:53.042Z,13.05
2023-05-14T06:20:22.222Z,13.11
2023-05-14T06:22:51.284Z,13.20
2023-05-14T06:25:20.582Z,13.35
2023-05-14T06:27:49.797Z,13.47
2023-05-14T06:30:18.925Z,13.57
2023-05-14T06:32:48.183Z,13.69
2023-05-14T06:35:17.208Z,13.82
2023-05-14T06:37:46.348Z,13.94
2023-05-14T06:40:18.225Z,14.08
2023-05-14T06:42:47.207Z,14.21
2023-05-14T06:45:16.233Z,14.33
2023-05-14T06:47:45.279Z,14.50
2023-05-14T06:50:14.418Z,14.61
2023-05-14T06:52:45.111Z,14.75
2023-05-14T06:55:14.484Z,14.87
2023-05-14T06:57:43.883Z,14.98
2023-05-14T07:00:14.571Z,15.12
2023-05-14T07:02:43.542Z,15.24
2023-05-14T07:05:13.714Z,15.36
2023-05-14T07:07:42.701Z,15.54
2023-05-14T07:10:12.161Z,15.67
2023-05-14T07:12:41.128Z,15.80
2023-05-14T07:15:10.638Z,15.93
2023-05-14T07:17:39.832Z,16.09
2023-05-14T07:20:09.894Z,16.18
2023-05-14T07:22:38.976Z,16.24
2023-05-14T07:25:08.492Z,16.29
2023-05-14T07:27:37.161Z,16.49
2023-05-14T07:30:07.633Z,16.58
2023-05-14T07:32:36.532Z,16.63
2023-05-14T07:35:06.421Z,16.74
2023-05-14T07:37:35.424Z,16.81
2023-05-14T07:40:05.064Z,16.92
2023-05-14T07:42:36.951Z,17.09
2023-05-14T07:45:07.253Z,17.31
2023-05-14T07:47:36.618Z,17.44
2023-05-14T07:50:06.580Z,17.52
2023-05-14T07:52:36.038Z,17.66
2023-05-14T07:55:05.311Z,17.78
2023-05-14T07:57:34.401Z,17.92
2023-05-14T08:00:04.991Z,17.89
2023-05-14T08:02:41.187Z,17.87
2023-05-14T08:05:10.710Z,17.96
2023-05-14T08:07:39.768Z,18.02
2023-05-14T08:10:09.606Z,18.14
2023-05-14T08:12:39.257Z,18.44
2023-05-14T08:15:09.694Z,18.59
2023-05-14T08:17:38.585Z,18.58
2023-05-14T08:20:10.347Z,18.59
2023-05-14T08:22:39.545Z,18.64
2023-05-14T08:25:08.832Z,18.64
2023-05-14T08:27:37.830Z,18.70
2023-05-14T08:30:07.751Z,18.92
2023-05-14T08:32:38.806Z,19.15
2023-05-14T08:35:08.597Z,19.24
2023-05-14T08:37:37.677Z,19.18
2023-05-14T08:40:08.854Z,19.44
2023-05-14T08:42:43.386Z,19.62
2023-05-14T08:45:19.966Z,19.61
2023-05-14T08:47:51.697Z,19.68
2023-05-14T08:50:22.977Z,19.66
2023-05-14T08:52:53.577Z,19.65
2023-05-14T08:55:22.913Z,19.67
2023-05-14T08:57:51.895Z,19.57
2023-05-14T09:00:21.473Z,19.65
2023-05-14T09:02:51.909Z,19.88
2023-05-14T09:05:22.441Z,20.05
2023-05-14T09:07:51.396Z,20.13
2023-05-14T09:10:22.833Z,20.25
2023-05-14T09:12:52.156Z,20.51
2023-05-14T09:15:21.388Z,20.68
2023-05-14T09:17:50.795Z,20.83
2023-05-14T09:20:20.245Z,20.81
2023-05-14T09:22:54.732Z,21.01
2023-05-14T09:25:28.697Z,21.10
2023-05-14T09:27:59.032Z,21.23
2023-05-14T09:30:28.486Z,21.47
2023-05-14T09:32:57.885Z,21.70
2023-05-14T09:35:26.822Z,21.18
2023-05-14T09:37:56.004Z,21.02
2023-05-14T09:40:25.259Z,21.21
2023-05-14T09:42:55.333Z,21.50
2023-05-14T09:45:24.690Z,21.78
2023-05-14T09:47:54.212Z,21.95
2023-05-14T09:50:23.617Z,21.80
2023-05-14T09:52:55.837Z,21.88
2023-05-14T09:55:26.533Z,21.80
2023-05-14T09:57:55.684Z,21.81
2023-05-14T10:00:25.252Z,21.85
2023-05-14T10:02:55.397Z,21.94
2023-05-14T10:05:25.177Z,21.97
2023-05-14T10:07:59.354Z,22.16
2023-05-14T10:10:30.663Z,22.29
2023-05-14T10:13:08.131Z,22.19
2023-05-14T10:15:47.460Z,22.16
2023-05-14T10:18:24.926Z,22.31
2023-05-14T10:21:04.775Z,22.61
2023-05-14T10:23:38.155Z,22.73
2023-05-14T10:26:08.785Z,22.51
2023-05-14T10:28:38.047Z,22.32
2023-05-14T10:31:10.960Z,22.06
2023-05-14T10:33:51.298Z,22.40
2023-05-14T10:36:21.114Z,22.72
2023-05-14T10:38:57.369Z,22.63
2023-05-14T10:41:27.045Z,22.69
2023-05-14T10:43:58.234Z,22.89
2023-05-14T10:46:27.688Z,23.12
2023-05-14T10:48:57.350Z,23.07
2023-05-14T10:51:26.911Z,22.95
2023-05-14T10:53:57.180Z,22.71
2023-05-14T10:56:26.389Z,22.98
2023-05-14T10:59:00.500Z,23.33
2023-05-14T11:01:29.599Z,23.58
2023-05-14T11:03:59.044Z,23.86
2023-05-14T11:06:28.532Z,23.95
2023-05-14T11:08:59.268Z,24.14
2023-05-14T11:11:28.924Z,23.67
2023-05-14T11:13:58.529Z,23.71
2023-05-14T11:16:30.985Z,24.27
2023-05-14T11:19:07.712Z,24.06
2023-05-14T11:21:37.275Z,24.30
2023-05-14T11:24:07.583Z,24.32
2023-05-14T11:26:36.798Z,24.68
2023-05-14T11:29:05.856Z,24.15
2023-05-14T11:31:35.995Z,24.25
2023-05-14T11:34:10.638Z,24.95
2023-05-14T11:36:40.200Z,25.17
2023-05-14T11:39:10.181Z,24.99
2023-05-14T11:41:46.216Z,24.99
2023-05-14T11:44:15.298Z,25.73
2023-05-14T11:46:55.811Z,24.63
2023-05-14T11:49:26.140Z,24.70
2023-05-14T11:52:00.529Z,25.24
2023-05-14T11:54:30.808Z,25.01
2023-05-14T11:57:16.534Z,24.84
2023-05-14T11:59:46.152Z,25.51
2023-05-14T12:02:19.963Z,26.32
2023-05-14T12:04:54.053Z,26.31
2023-05-14T12:07:23.083Z,26.55
2023-05-14T12:09:52.094Z,26.80
2023-05-14T12:12:23.502Z,26.58
2023-05-14T12:14:53.468Z,26.74
2023-05-14T12:17:24.270Z,27.05
2023-05-14T12:19:53.598Z,27.42
2023-05-14T12:22:23.680Z,26.80
2023-05-14T12:24:58.656Z,27.19
2023-05-14T12:27:29.930Z,27.49
2023-05-14T12:32:41.820Z,27.23
2023-05-14T12:35:11.135Z,27.39
2023-05-14T12:37:40.811Z,26.29
2023-05-14T12:40:10.551Z,25.76
2023-05-14T12:42:39.551Z,25.49
2023-05-14T12:45:09.269Z,24.93
2023-05-14T12:47:38.551Z,24.85
2023-05-14T12:50:08.669Z,25.64
2023-05-14T12:52:39.729Z,25.92
2023-05-14T12:55:10.261Z,25.82
2023-05-14T12:57:39.853Z,26.34
2023-05-14T13:00:13.897Z,26.55
2023-05-14T13:02:44.147Z,26.85
2023-05-14T13:05:13.493Z,25.61
2023-05-14T13:07:42.797Z,25.88
2023-05-14T13:10:12.226Z,26.22
2023-05-14T13:12:42.113Z,25.10
2023-05-14T13:15:12.347Z,26.07
2023-05-14T13:17:41.815Z,26.61
2023-05-14T13:20:11.553Z,26.97
2023-05-14T13:22:40.919Z,26.88
2023-05-14T13:25:10.965Z,27.40
2023-05-14T13:27:39.911Z,27.62
2023-05-14T13:30:09.656Z,27.33
2023-05-14T13:32:40.746Z,27.42
2023-05-14T13:35:12.041Z,27.90
2023-05-14T13:37:43.479Z,27.66
2023-05-14T13:40:13.315Z,27.16
2023-05-14T13:42:43.106Z,26.63
2023-05-14T13:45:13.403Z,26.89
2023-05-14T13:47:42.624Z,26.86
2023-05-14T13:50:11.854Z,26.77
2023-05-14T13:52:40.934Z,27.20
2023-05-14T13:55:10.383Z,27.27
2023-05-14T13:57:41.918Z,26.62
2023-05-14T14:00:12.024Z,25.97
2023-05-14T14:02:41.315Z,25.61
2023-05-14T14:05:10.661Z,25.81
2023-05-14T14:07:40.897Z,26.22
2023-05-14T14:10:10.704Z,26.49
2023-05-14T14:12:39.778Z,26.21
2023-05-14T14:15:09.357Z,25.70
2023-05-14T14:17:39.579Z,25.55
2023-05-14T14:20:10.726Z,25.85
2023-05-14T14:22:43.428Z,26.65
2023-05-14T14:25:13.653Z,27.41
2023-05-14T14:27:42.685Z,27.85
2023-05-14T14:30:15.848Z,27.16
2023-05-14T14:32:46.494Z,27.14
2023-05-14T14:35:18.747Z,27.52
2023-05-14T14:37:53.569Z,27.76
2023-05-14T14:40:24.236Z,27.74
2023-05-14T14:42:53.646Z,27.80
2023-05-14T14:45:23.603Z,27.96
2023-05-14T14:48:12.808Z,27.88
2023-05-14T14:50:41.979Z,27.30
2023-05-14T14:53:11.149Z,26.77
2023-05-14T14:55:40.596Z,26.74
2023-05-14T14:58:10.002Z,26.74
2023-05-14T15:00:40.510Z,26.49
2023-05-14T15:03:10.653Z,26.37
2023-05-14T15:05:40.156Z,26.49
2023-05-14T15:08:09.501Z,25.91
2023-05-14T15:10:39.185Z,25.32
2023-05-14T15:13:09.419Z,24.73
2023-05-14T15:15:38.810Z,24.67
2023-05-14T15:18:07.875Z,24.81
2023-05-14T15:20:37.594Z,25.55
2023-05-14T15:23:07.045Z,26.28
2023-05-14T15:25:36.785Z,26.31
2023-05-14T15:28:09.168Z,26.34
2023-05-14T15:30:38.486Z,26.44
2023-05-14T15:33:11.037Z,26.34
2023-05-14T15:35:40.473Z,25.84
2023-05-14T15:38:09.794Z,25.68
2023-05-14T15:40:38.720Z,25.58
2023-05-14T15:43:08.273Z,25.59
2023-05-14T15:45:37.297Z,26.12
2023-05-14T15:48:07.139Z,26.47
2023-05-14T15:50:36.438Z,26.16
2023-05-14T15:53:05.940Z,25.98
2023-05-14T15:55:35.570Z,26.10
2023-05-14T15:58:04.791Z,26.00
2023-05-14T16:00:35.490Z,26.04
2023-05-14T16:03:05.523Z,26.02
2023-05-14T16:05:34.858Z,25.74
2023-05-14T16:08:04.111Z,25.45
2023-05-14T16:10:33.234Z,25.37
2023-05-14T16:13:02.468Z,24.96
2023-05-14T16:15:31.831Z,24.63
2023-05-14T16:18:01.493Z,24.24
2023-05-14T16:20:30.945Z,23.76
2023-05-14T16:23:00.286Z,23.39
2023-05-14T16:25:31.662Z,22.86
2023-05-14T16:28:01.633Z,22.40
2023-05-14T16:30:30.827Z,22.06
2023-05-14T16:33:00.558Z,21.82
2023-05-14T16:35:30.068Z,21.61
2023-05-14T16:38:00.180Z,21.42
2023-05-14T16:40:29.701Z,21.22
2023-05-14T16:42:59.164Z,21.02
2023-05-14T16:45:28.645Z,20.86
2023-05-14T16:47:57.982Z,20.69
2023-05-14T16:50:28.588Z,20.50
2023-05-14T16:52:58.055Z,20.33
2023-05-14T16:55:27.520Z,20.13
2023-05-14T16:57:56.801Z,19.97
2023-05-14T17:00:26.700Z,19.83
2023-05-14T17:02:56.279Z,19.68
2023-05-14T17:05:25.979Z,19.51
2023-05-14T17:07:55.787Z,19.36
2023-05-14T17:10:26.795Z,19.20
2023-05-14T17:12:56.121Z,19.01
2023-05-14T17:15:42.886Z,18.81
2023-05-14T17:18:12.250Z,18.63
2023-05-14T17:20:41.497Z,18.43
2023-05-14T17:23:10.717Z,18.23
2023-05-14T17:25:40.229Z,18.02
2023-05-14T17:28:09.393Z,17.81
2023-05-14T17:30:38.587Z,17.61
2023-05-14T17:33:08.396Z,17.40
2023-05-14T17:35:37.787Z,17.20
2023-05-14T17:38:07.366Z,17.00
2023-05-14T17:40:36.772Z,16.80
2023-05-14T17:43:06.456Z,16.61
2023-05-14T17:45:46.332Z,16.40
2023-05-14T17:48:24.302Z,16.21
2023-05-14T17:50:53.870Z,16.02
2023-05-14T17:53:23.050Z,15.85
2023-05-14T17:55:52.197Z,15.67
2023-05-14T17:58:21.599Z,15.49
2023-05-14T18:00:51.369Z,15.35
2023-05-14T18:03:21.448Z,15.20
2023-05-14T18:05:51.693Z,15.08
2023-05-14T18:08:20.719Z,14.96
2023-05-14T18:10:49.792Z,14.85
2023-05-14T18:13:19.133Z,14.74
2023-05-14T18:15:48.833Z,14.63
2023-05-14T18:18:19.005Z,14.54
2023-05-14T18:20:49.706Z,14.43
2023-05-14T18:23:20.102Z,14.33
2023-05-14T18:25:49.610Z,14.20
2023-05-14T18:28:19.445Z,14.08
2023-05-14T18:30:49.970Z,13.94
2023-05-14T18:33:19.083Z,13.82
2023-05-14T18:35:48.291Z,13.70
2023-05-14T18:38:19.864Z,13.58
2023-05-14T18:40:49.715Z,13.50
2023-05-14T18:43:20.221Z,13.43
2023-05-14T18:45:49.994Z,13.35
2023-05-14T18:48:19.701Z,13.30
2023-05-14T18:50:49.395Z,13.24
2023-05-14T18:53:18.852Z,13.21
2023-05-14T18:55:49.387Z,13.21
2023-05-14T18:58:18.698Z,13.23
2023-05-14T19:00:48.004Z,13.26
2023-05-14T19:03:17.834Z,13.29
2023-05-14T19:05:47.429Z,13.31
2023-05-14T19:08:17.148Z,13.36
2023-05-14T19:10:46.705Z,13.42
2023-05-14T19:13:18.822Z,13.45
2023-05-14T19:15:48.186Z,13.47
2023-05-14T19:18:17.977Z,13.50
2023-05-14T19:20:47.206Z,13.53
2023-05-14T19:23:16.413Z,13.56
2023-05-14T19:25:45.591Z,13.59
2023-05-14T19:28:15.738Z,13.58
2023-05-14T19:30:44.895Z,13.55
2023-05-14T19:33:13.961Z,13.51
2023-05-14T19:35:43.311Z,13.45
2023-05-14T19:38:12.301Z,13.40
2023-05-14T19:40:43.653Z,13.35
2023-05-14T19:43:14.166Z,13.29
2023-05-14T19:45:43.544Z,13.19
2023-05-14T19:48:13.943Z,13.12
2023-05-14T19:50:43.393Z,13.01
2023-05-14T19:53:12.385Z,12.95
2023-05-14T19:55:41.911Z,12.84
2023-05-14T19:58:11.430Z,12.71
2023-05-14T20:00:40.240Z,12.60
2023-05-14T20:03:10.604Z,12.50
2023-05-14T20:05:40.053Z,12.39
2023-05-14T20:08:09.610Z,12.28
2023-05-14T20:10:39.246Z,12.20
2023-05-14T20:13:08.880Z,12.12
2023-05-14T20:15:39.524Z,12.04
2023-05-14T20:18:09.097Z,11.96
2023-05-14T20:20:39.792Z,11.89
2023-05-14T20:23:09.633Z,11.82
2023-05-14T20:25:38.645Z,11.75
2023-05-14T20:28:07.832Z,11.68
2023-05-14T20:30:37.563Z,11.60
2023-05-14T20:33:07.064Z,11.60
2023-05-14T20:35:36.355Z,11.59
2023-05-14T20:38:05.532Z,11.59
2023-05-14T20:40:34.744Z,11.56
2023-05-14T20:43:03.943Z,11.55
2023-05-14T20:45:33.347Z,11.55
2023-05-14T20:48:02.659Z,11.62
2023-05-14T20:50:31.892Z,11.72
2023-05-14T20:53:01.285Z,11.86
2023-05-14T20:55:30.614Z,11.99
2023-05-14T20:57:59.738Z,12.07
2023-05-14T21:00:29.076Z,12.17
2023-05-14T21:02:59.871Z,12.24
2023-05-14T21:05:29.668Z,12.31
2023-05-14T21:07:58.940Z,12.37
2023-05-14T21:10:28.236Z,12.41
2023-05-14T21:12:57.690Z,12.45
2023-05-14T21:15:27.620Z,12.49
2023-05-14T21:17:56.902Z,12.54
2023-05-14T21:20:26.454Z,12.55
2023-05-14T21:22:55.952Z,12.57
2023-05-14T21:25:25.578Z,12.56
2023-05-14T21:27:54.999Z,12.58
2023-05-14T21:30:24.060Z,12.60
2023-05-14T21:32:53.650Z,12.62
2023-05-14T21:35:23.316Z,12.63
2023-05-14T21:37:52.875Z,12.64
2023-05-14T21:40:22.061Z,12.67
2023-05-14T21:42:51.343Z,12.68
2023-05-14T21:45:22.863Z,12.70
2023-05-14T21:47:52.968Z,12.73
2023-05-14T21:50:22.472Z,12.78
2023-05-14T21:52:51.747Z,12.85
2023-05-14T21:55:20.855Z,12.88
2023-05-14T21:57:50.267Z,12.92
2023-05-14T22:00:23.603Z,12.96
2023-05-14T22:02:53.775Z,13.03
2023-05-14T22:05:23.365Z,13.11
2023-05-14T22:07:52.971Z,13.18
2023-05-14T22:10:22.259Z,13.20
2023-05-14T22:12:51.373Z,13.22
2023-05-14T22:15:20.549Z,13.26
2023-05-14T22:17:50.107Z,13.29
2023-05-14T22:20:19.641Z,13.34
2023-05-14T22:22:48.976Z,13.36
2023-05-14T22:25:18.638Z,13.38
2023-05-14T22:27:48.003Z,13.41
2023-05-14T22:30:17.167Z,13.43
2023-05-14T22:32:46.363Z,13.45
2023-05-14T22:35:15.923Z,13.49
2023-05-14T22:37:45.097Z,13.54
2023-05-14T22:40:14.922Z,13.53
2023-05-14T22:42:44.097Z,13.52
2023-05-14T22:45:13.363Z,13.49
2023-05-14T22:47:42.651Z,13.46
2023-05-14T22:50:12.013Z,13.44
2023-05-14T22:52:41.978Z,13.42
2023-05-14T22:55:11.721Z,13.37
2023-05-14T22:57:41.163Z,13.34
2023-05-14T23:00:11.714Z,13.31
2023-05-14T23:02:40.931Z,13.28
2023-05-14T23:05:10.328Z,13.26
2023-05-14T23:07:39.982Z,13.26
2023-05-14T23:10:09.800Z,13.24
2023-05-14T23:12:39.210Z,13.22
2023-05-14T23:15:08.898Z,13.21
2023-05-14T23:17:39.295Z,13.18
2023-05-14T23:20:13.484Z,13.14
2023-05-14T23:22:42.647Z,13.11
2023-05-14T23:25:11.742Z,13.11
2023-05-14T23:27:41.482Z,13.08
2023-05-14T23:30:11.386Z,13.08
2023-05-14T23:32:40.613Z,13.01
2023-05-14T23:35:10.996Z,13.03
2023-05-14T23:37:47.489Z,13.00
2023-05-14T23:40:17.430Z,12.97
2023-05-14T23:42:46.785Z,12.94
2023-05-14T23:45:16.096Z,12.89
2023-05-14T23:47:45.449Z,12.86
2023-05-14T23:50:14.444Z,12.82
2023-05-14T23:52:43.988Z,12.79
2023-05-14T23:55:13.808Z,12.77
2023-05-14T23:57:42.892Z,12.73
